Time;durP1;ratioP1;P1;durP2;ratioP2;P2;SDS_P1;SDS_P2;PMS_P1;PMS_P2;Temp;Humidity;BMP_temperature;BMP_pressure;BME280_temperature;BME280_humidity;BME280_pressure;Samples;Min_cycle;Max_cycle;Signal;HPM_P1;HPM_P2
2022/07/10 00:00:51;;;;;;;2.38;2.28;;;;;;;;;;5072350;28;20239;-66
2022/07/10 00:03:16;;;;;;;2.65;2.10;;;;;;;;;;5074367;28;20031;-65
2022/07/10 00:05:41;;;;;;;2.22;2.13;;;;;;;;;;5072927;28;20519;-65
2022/07/10 00:08:07;;;;;;;2.75;2.60;;;;;;;;;;5073701;28;20054;-66
2022/07/10 00:10:33;;;;;;;1.83;1.73;;;;;;;;;;5074000;28;20557;-66
2022/07/10 00:12:58;;;;;;;2.88;2.45;;;;;;;;;;5078175;28;20385;-65
2022/07/10 00:15:23;;;;;;;2.75;2.50;;;;;;;;;;5072685;28;20025;-65
2022/07/10 00:17:49;;;;;;;1.95;1.85;;;;;;;;;;5072870;28;20099;-65
2022/07/10 00:20:15;;;;;;;2.80;2.58;;;;;;;;;;5074061;28;20110;-65
2022/07/10 00:22:41;;;;;;;2.20;2.10;;;;;;;;;;5072487;28;20035;-65
2022/07/10 00:25:07;;;;;;;3.72;2.58;;;;;;;;;;5073472;28;20032;-65
2022/07/10 00:27:32;;;;;;;2.60;2.47;;;;;;;;;;5073269;28;20016;-65
2022/07/10 00:29:58;;;;;;;2.30;2.17;;;;;;;;;;5074120;28;20036;-65
2022/07/10 00:32:23;;;;;;;2.40;2.30;;;;;;;;;;5071180;28;20033;-65
2022/07/10 00:34:48;;;;;;;5.50;2.72;;;;;;;;;;5072450;28;20031;-65
2022/07/10 00:37:14;;;;;;;2.30;2.20;;;;;;;;;;5071081;28;20191;-65
2022/07/10 00:39:39;;;;;;;2.83;2.50;;;;;;;;;;5052700;28;20670;-65
2022/07/10 00:42:14;;;;;;;2.22;2.13;;;;;;;;;;5051678;28;20029;-64
2022/07/10 00:44:40;;;;;;;2.47;2.38;;;;;;;;;;5052508;28;20081;-64
2022/07/10 00:47:06;;;;;;;2.42;2.30;;;;;;;;;;5052458;28;20021;-64
2022/07/10 00:49:32;;;;;;;3.33;3.03;;;;;;;;;;5036181;28;20032;-66
2022/07/10 00:51:59;;;;;;;3.20;2.90;;;;;;;;;;5052010;28;20033;-66
2022/07/10 00:54:25;;;;;;;2.30;2.20;;;;;;;;;;5051312;28;20036;-66
2022/07/10 00:56:50;;;;;;;2.70;2.55;;;;;;;;;;5052991;28;20606;-65
2022/07/10 00:59:15;;;;;;;2.85;2.42;;;;;;;;;;5055465;28;20040;-66
2022/07/10 01:01:40;;;;;;;2.50;2.40;;;;;;;;;;5052468;28;20025;-66
2022/07/10 01:04:06;;;;;;;3.08;2.47;;;;;;;;;;5052244;28;20395;-67
2022/07/10 01:06:32;;;;;;;2.80;2.60;;;;;;;;;;5051258;28;20112;-66
2022/07/10 01:08:57;;;;;;;2.70;2.50;;;;;;;;;;5035478;28;20059;-66
2022/07/10 01:11:23;;;;;;;2.90;2.70;;;;;;;;;;5051934;28;20021;-66
2022/07/10 01:13:48;;;;;;;3.22;3.03;;;;;;;;;;5051577;28;20435;-65
2022/07/10 01:16:14;;;;;;;2.65;2.45;;;;;;;;;;5052310;28;20414;-65
2022/07/10 01:18:39;;;;;;;2.63;2.42;;;;;;;;;;5053602;28;20025;-66
2022/07/10 01:21:05;;;;;;;2.30;2.10;;;;;;;;;;5052550;28;20471;-64
2022/07/10 01:23:30;;;;;;;2.30;2.10;;;;;;;;;;5052474;28;20024;-65
2022/07/10 01:25:55;;;;;;;4.05;3.10;;;;;;;;;;5053422;28;20032;-65
2022/07/10 01:28:21;;;;;;;3.38;2.67;;;;;;;;;;5054300;28;20021;-66
2022/07/10 01:30:46;;;;;;;2.80;2.60;;;;;;;;;;5052726;28;20029;-66
2022/07/10 01:33:11;;;;;;;3.83;2.60;;;;;;;;;;5053145;28;20375;-66
2022/07/10 01:35:37;;;;;;;2.70;2.50;;;;;;;;;;5051363;28;20021;-65
2022/07/10 01:38:02;;;;;;;3.30;3.03;;;;;;;;;;5052685;28;20507;-65
2022/07/10 01:40:27;;;;;;;2.92;2.70;;;;;;;;;;5052787;28;20033;-65
2022/07/10 01:42:54;;;;;;;3.10;2.90;;;;;;;;;;5051545;28;20454;-65
2022/07/10 01:45:20;;;;;;;3.28;2.85;;;;;;;;;;5037768;28;20029;-66
2022/07/10 01:47:45;;;;;;;3.08;2.80;;;;;;;;;;5052064;28;20534;-65
2022/07/10 01:50:10;;;;;;;3.00;2.80;;;;;;;;;;5052939;28;20035;-64
2022/07/10 01:52:36;;;;;;;2.72;2.53;;;;;;;;;;5051748;28;20054;-64
2022/07/10 01:55:01;;;;;;;2.55;2.35;;;;;;;;;;5052471;28;20021;-64
2022/07/10 01:57:27;;;;;;;2.97;2.67;;;;;;;;;;5051460;28;20513;-65
2022/07/10 01:59:52;;;;;;;3.05;2.67;;;;;;;;;;5050998;28;20021;-65
2022/07/10 02:02:17;;;;;;;2.58;2.38;;;;;;;;;;5051784;28;20029;-65
2022/07/10 02:04:42;;;;;;;3.03;2.83;;;;;;;;;;5052608;28;20036;-66
2022/07/10 02:07:08;;;;;;;3.70;3.40;;;;;;;;;;5052022;28;20029;-66
2022/07/10 02:09:33;;;;;;;3.45;3.13;;;;;;;;;;5051520;28;20124;-66
2022/07/10 02:11:58;;;;;;;2.90;2.70;;;;;;;;;;5052255;28;20626;-64
2022/07/10 02:14:23;;;;;;;2.97;2.78;;;;;;;;;;5052914;28;20455;-66
2022/07/10 02:16:49;;;;;;;3.25;3.05;;;;;;;;;;5051968;28;20029;-65
2022/07/10 02:19:14;;;;;;;3.20;2.90;;;;;;;;;;5053390;28;20124;-64
2022/07/10 02:21:39;;;;;;;3.63;3.30;;;;;;;;;;5051890;28;20124;-65
2022/07/10 02:24:04;;;;;;;2.85;2.65;;;;;;;;;;5051185;28;20375;-64
2022/07/10 02:26:30;;;;;;;2.97;2.75;;;;;;;;;;5052551;28;20021;-65
2022/07/10 02:28:55;;;;;;;2.90;2.60;;;;;;;;;;5035557;28;20035;-64
2022/07/10 02:31:21;;;;;;;2.70;2.60;;;;;;;;;;5049811;28;20456;-65
2022/07/10 02:33:46;;;;;;;3.28;3.03;;;;;;;;;;5055524;28;20039;-65
2022/07/10 02:36:11;;;;;;;3.60;3.30;;;;;;;;;;5055444;28;20025;-64
2022/07/10 02:38:36;;;;;;;3.13;2.92;;;;;;;;;;5056282;28;20056;-64
2022/07/10 02:41:02;;;;;;;2.97;2.75;;;;;;;;;;5055654;28;20121;-64
2022/07/10 02:43:27;;;;;;;2.90;2.70;;;;;;;;;;5055566;28;20135;-64
2022/07/10 02:45:52;;;;;;;3.10;2.80;;;;;;;;;;5054455;28;20024;-65
2022/07/10 02:48:18;;;;;;;3.00;2.78;;;;;;;;;;5055027;28;20036;-64
2022/07/10 02:50:43;;;;;;;2.95;2.75;;;;;;;;;;5055417;28;20036;-65
2022/07/10 02:53:08;;;;;;;3.33;3.13;;;;;;;;;;5054754;28;20037;-65
2022/07/10 02:55:34;;;;;;;3.47;3.17;;;;;;;;;;5038451;28;20084;-66
2022/07/10 02:57:59;;;;;;;3.30;3.00;;;;;;;;;;5055014;28;20020;-66
2022/07/10 03:00:25;;;;;;;3.13;2.80;;;;;;;;;;5054453;28;20033;-67
2022/07/10 03:02:51;;;;;;;5.43;3.13;;;;;;;;;;5055712;28;20094;-66
2022/07/10 03:05:16;;;;;;;2.97;2.78;;;;;;;;;;5055186;28;20029;-67
2022/07/10 03:07:41;;;;;;;3.25;3.05;;;;;;;;;;5055021;28;20295;-66
2022/07/10 03:10:07;;;;;;;3.45;3.15;;;;;;;;;;5054357;28;20040;-66
2022/07/10 03:12:32;;;;;;;3.97;3.05;;;;;;;;;;5054439;28;20029;-63
2022/07/10 03:14:59;;;;;;;2.90;2.70;;;;;;;;;;5055342;28;20033;-64
2022/07/10 03:17:24;;;;;;;3.60;3.40;;;;;;;;;;5054323;28;20023;-64
2022/07/10 03:19:49;;;;;;;2.88;2.67;;;;;;;;;;5055227;28;20467;-67
2022/07/10 03:22:14;;;;;;;3.10;2.47;;;;;;;;;;5038090;28;20342;-65
2022/07/10 03:24:40;;;;;;;3.42;3.15;;;;;;;;;;5054764;28;20483;-67
2022/07/10 03:27:06;;;;;;;2.70;2.50;;;;;;;;;;5036060;28;20037;-66
2022/07/10 03:29:32;;;;;;;3.63;2.70;;;;;;;;;;5053233;28;20043;-65
2022/07/10 03:31:57;;;;;;;3.30;3.00;;;;;;;;;;5053884;28;20021;-65
2022/07/10 03:34:22;;;;;;;3.38;3.08;;;;;;;;;;5054725;28;20497;-65
2022/07/10 03:36:47;;;;;;;4.13;3.22;;;;;;;;;;5054351;28;20024;-65
2022/07/10 03:39:13;;;;;;;3.05;2.85;;;;;;;;;;5054049;28;20148;-65
2022/07/10 03:41:38;;;;;;;3.42;2.97;;;;;;;;;;5054047;28;20489;-66
2022/07/10 03:44:03;;;;;;;3.65;3.35;;;;;;;;;;5054710;28;20037;-65
2022/07/10 03:46:29;;;;;;;3.20;3.00;;;;;;;;;;5055244;28;20081;-64
2022/07/10 03:48:54;;;;;;;3.53;3.22;;;;;;;;;;5039038;28;20028;-65
2022/07/10 03:51:19;;;;;;;3.60;3.30;;;;;;;;;;5054312;28;20024;-65
2022/07/10 03:53:45;;;;;;;5.68;3.63;;;;;;;;;;5055093;28;20033;-65
2022/07/10 03:57:53;;;;;;;3.47;3.20;;;;;;;;;;5054351;28;20113;-65
2022/07/10 03:58:55;;;;;;;3.55;3.03;;;;;;;;;;5054358;28;20111;-66
2022/07/10 04:01:20;;;;;;;3.10;2.90;;;;;;;;;;5054214;28;20048;-66
2022/07/10 04:03:46;;;;;;;5.32;3.25;;;;;;;;;;5054356;28;20529;-65
2022/07/10 04:06:11;;;;;;;3.25;3.00;;;;;;;;;;5054214;28;20021;-65
2022/07/10 04:08:37;;;;;;;4.18;3.72;;;;;;;;;;5035066;28;20467;-63
2022/07/10 04:11:02;;;;;;;3.22;3.03;;;;;;;;;;5052734;28;20348;-64
2022/07/10 04:13:27;;;;;;;3.42;3.13;;;;;;;;;;5053542;28;20025;-65
2022/07/10 04:15:52;;;;;;;4.45;3.35;;;;;;;;;;5055189;28;20052;-66
2022/07/10 04:18:18;;;;;;;3.22;2.90;;;;;;;;;;5054011;28;20037;-64
2022/07/10 04:20:43;;;;;;;4.13;2.78;;;;;;;;;;5054303;28;20041;-63
2022/07/10 04:23:08;;;;;;;3.08;2.88;;;;;;;;;;5052696;28;20087;-65
2022/07/10 04:25:33;;;;;;;3.22;3.00;;;;;;;;;;5053083;28;20036;-64
2022/07/10 04:27:59;;;;;;;3.40;2.92;;;;;;;;;;5052236;28;20645;-64
2022/07/10 04:30:24;;;;;;;3.38;2.97;;;;;;;;;;5055339;28;20040;-64
2022/07/10 04:32:49;;;;;;;3.08;2.83;;;;;;;;;;5051667;28;20016;-64
2022/07/10 04:35:15;;;;;;;2.78;2.58;;;;;;;;;;5052099;28;20028;-65
2022/07/10 04:37:40;;;;;;;3.50;3.22;;;;;;;;;;5045100;28;20075;-65
2022/07/10 04:40:05;;;;;;;3.72;2.78;;;;;;;;;;5070778;28;20089;-64
2022/07/10 04:42:31;;;;;;;5.57;3.28;;;;;;;;;;5073484;28;20063;-64
2022/07/10 04:44:56;;;;;;;3.13;2.92;;;;;;;;;;5075325;28;20561;-65
2022/07/10 04:47:21;;;;;;;4.68;3.30;;;;;;;;;;5073613;28;20478;-66
2022/07/10 04:49:46;;;;;;;4.00;2.92;;;;;;;;;;5072868;28;20108;-65
2022/07/10 04:52:12;;;;;;;3.97;3.25;;;;;;;;;;5070992;28;20107;-66
2022/07/10 04:54:37;;;;;;;3.88;3.20;;;;;;;;;;5073145;28;20375;-64
2022/07/10 04:57:02;;;;;;;3.67;3.38;;;;;;;;;;5072453;28;20543;-64
2022/07/10 04:59:27;;;;;;;3.80;3.60;;;;;;;;;;5074895;28;20032;-66
2022/07/10 05:01:53;;;;;;;2.92;2.75;;;;;;;;;;5072632;28;20060;-64
2022/07/10 05:04:18;;;;;;;3.53;3.30;;;;;;;;;;5073319;28;20082;-65
2022/07/10 05:06:43;;;;;;;3.45;3.25;;;;;;;;;;5073642;28;20087;-68
2022/07/10 05:09:08;;;;;;;3.40;3.10;;;;;;;;;;5070791;28;20478;-66
2022/07/10 05:11:34;;;;;;;4.57;3.22;;;;;;;;;;5074693;28;20039;-65
2022/07/10 05:13:59;;;;;;;5.07;2.83;;;;;;;;;;5072002;28;20135;-65
2022/07/10 05:16:24;;;;;;;2.63;2.53;;;;;;;;;;5070673;28;20051;-65
2022/07/10 05:18:49;;;;;;;3.22;3.03;;;;;;;;;;5073492;28;20039;-66
2022/07/10 05:21:15;;;;;;;3.28;2.90;;;;;;;;;;5072449;28;20024;-65
2022/07/10 05:23:41;;;;;;;3.03;2.85;;;;;;;;;;5073020;28;20070;-65
2022/07/10 05:26:06;;;;;;;3.80;2.75;;;;;;;;;;5073796;28;20163;-66
2022/07/10 05:28:31;;;;;;;5.85;3.10;;;;;;;;;;5072460;28;20466;-65
2022/07/10 05:30:56;;;;;;;3.10;2.90;;;;;;;;;;5073495;28;20028;-65
2022/07/10 05:33:22;;;;;;;4.85;2.83;;;;;;;;;;5072190;28;20020;-65
2022/07/10 05:35:47;;;;;;;3.03;2.80;;;;;;;;;;5073289;28;20429;-66
2022/07/10 05:38:13;;;;;;;3.47;3.20;;;;;;;;;;5060806;28;20052;-67
2022/07/10 05:40:38;;;;;;;2.95;2.75;;;;;;;;;;5052552;28;20055;-66
2022/07/10 05:43:03;;;;;;;3.35;2.97;;;;;;;;;;5034811;28;20029;-66
2022/07/10 05:45:29;;;;;;;4.22;2.50;;;;;;;;;;5032325;28;20033;-65
2022/07/10 05:47:54;;;;;;;3.38;3.17;;;;;;;;;;5052391;28;20040;-65
2022/07/10 05:50:19;;;;;;;3.25;2.80;;;;;;;;;;5051774;28;20029;-65
2022/07/10 05:52:45;;;;;;;3.78;2.50;;;;;;;;;;5053495;28;20455;-65
2022/07/10 05:55:10;;;;;;;3.22;3.03;;;;;;;;;;5052316;28;20021;-66
2022/07/10 05:57:36;;;;;;;3.42;2.35;;;;;;;;;;5053163;28;20478;-65
2022/07/10 06:00:03;;;;;;;3.55;3.35;;;;;;;;;;5051636;28;20502;-65
2022/07/10 06:02:29;;;;;;;3.30;3.10;;;;;;;;;;5051454;28;20053;-65
2022/07/10 06:04:54;;;;;;;3.10;2.90;;;;;;;;;;5052828;28;20059;-65
2022/07/10 06:07:19;;;;;;;4.25;3.20;;;;;;;;;;5045508;28;20029;-65
2022/07/10 06:09:44;;;;;;;5.05;3.20;;;;;;;;;;5057138;28;20035;-66
2022/07/10 06:12:10;;;;;;;3.28;3.03;;;;;;;;;;5056668;28;20141;-66
2022/07/10 06:14:35;;;;;;;3.25;2.95;;;;;;;;;;5055578;28;20116;-64
2022/07/10 06:17:01;;;;;;;3.55;2.88;;;;;;;;;;5056457;28;20021;-66
2022/07/10 06:19:26;;;;;;;3.55;3.30;;;;;;;;;;5056908;28;20045;-66
2022/07/10 06:22:30;;;;;;;4.15;3.15;;;;;;;;;;5055758;28;20025;-65
2022/07/10 06:24:38;;;;;;;3.33;3.00;;;;;;;;;;5055010;28;20070;-65
2022/07/10 06:27:03;;;;;;;3.83;3.63;;;;;;;;;;5057048;28;20431;-66
2022/07/10 06:29:28;;;;;;;3.38;3.17;;;;;;;;;;5054412;28;20033;-65
2022/07/10 06:31:54;;;;;;;3.72;2.80;;;;;;;;;;5056359;28;20032;-66
2022/07/10 06:34:20;;;;;;;3.58;3.10;;;;;;;;;;5055972;28;20032;-65
2022/07/10 06:36:45;;;;;;;3.75;3.38;;;;;;;;;;5055140;28;20498;-66
2022/07/10 06:39:10;;;;;;;3.67;3.47;;;;;;;;;;5053736;28;20052;-66
2022/07/10 06:41:35;;;;;;;3.15;2.83;;;;;;;;;;5055427;28;20569;-65
2022/07/10 06:44:02;;;;;;;3.90;3.28;;;;;;;;;;5054484;28;20403;-67
2022/07/10 06:46:27;;;;;;;4.22;3.17;;;;;;;;;;5040925;28;20467;-66
2022/07/10 06:48:52;;;;;;;3.58;3.38;;;;;;;;;;5040884;28;20048;-67
2022/07/10 06:51:18;;;;;;;3.75;3.55;;;;;;;;;;5036593;28;20044;-66
2022/07/10 06:53:43;;;;;;;3.33;3.13;;;;;;;;;;5046457;28;20116;-66
2022/07/10 06:56:08;;;;;;;3.88;3.60;;;;;;;;;;5055590;28;20382;-67
2022/07/10 06:58:34;;;;;;;3.30;3.10;;;;;;;;;;5037250;28;20125;-66
2022/07/10 07:00:59;;;;;;;3.50;3.25;;;;;;;;;;5053700;28;20125;-65
2022/07/10 07:03:24;;;;;;;3.45;3.25;;;;;;;;;;5046538;28;20381;-67
2022/07/10 07:05:49;;;;;;;3.00;2.90;;;;;;;;;;5055059;28;20070;-66
2022/07/10 07:08:16;;;;;;;3.50;3.20;;;;;;;;;;5046682;28;20025;-65
2022/07/10 07:10:41;;;;;;;4.00;3.20;;;;;;;;;;5036944;28;20025;-64
2022/07/10 07:13:09;;;;;;;3.60;3.30;;;;;;;;;;5055299;28;20025;-65
2022/07/10 07:15:38;;;;;;;4.03;3.83;;;;;;;;;;5035310;28;20498;-65
2022/07/10 07:18:12;;;;;;;2.95;2.75;;;;;;;;;;5053661;28;20047;-65
2022/07/10 07:23:21;;;;;;;3.15;2.85;;;;;;;;;;5039451;28;20032;-65
2022/07/10 07:25:47;;;;;;;3.50;3.25;;;;;;;;;;5055629;28;20385;-65
2022/07/10 07:28:15;;;;;;;3.30;3.10;;;;;;;;;;5055000;28;20036;-66
2022/07/10 07:30:40;;;;;;;3.80;3.60;;;;;;;;;;5054574;28;20025;-66
2022/07/10 07:33:05;;;;;;;2.90;2.70;;;;;;;;;;5041162;28;20035;-65
2022/07/10 07:35:31;;;;;;;3.08;2.97;;;;;;;;;;5055229;28;20113;-66
2022/07/10 07:37:56;;;;;;;3.47;3.17;;;;;;;;;;5053362;28;20126;-65
2022/07/10 07:40:25;;;;;;;3.47;3.17;;;;;;;;;;5036956;28;20037;-66
2022/07/10 07:42:50;;;;;;;3.75;3.45;;;;;;;;;;5035590;28;20029;-65
2022/07/10 07:45:16;;;;;;;3.67;3.03;;;;;;;;;;5054793;28;20047;-65
2022/07/10 07:47:45;;;;;;;3.75;2.92;;;;;;;;;;5055962;28;20021;-66
2022/07/10 07:50:11;;;;;;;3.17;2.88;;;;;;;;;;5053559;28;20075;-67
2022/07/10 07:52:36;;;;;;;3.10;2.90;;;;;;;;;;5046377;28;20040;-66
2022/07/10 07:55:02;;;;;;;3.45;3.15;;;;;;;;;;5053756;28;20702;-65
2022/07/10 07:57:27;;;;;;;3.40;3.10;;;;;;;;;;5055064;28;20040;-66
2022/07/10 07:59:53;;;;;;;3.22;3.03;;;;;;;;;;5052365;28;20032;-66
2022/07/10 08:02:18;;;;;;;3.65;3.45;;;;;;;;;;5055092;28;20116;-66
2022/07/10 08:04:43;;;;;;;3.78;3.58;;;;;;;;;;5036109;28;20037;-65
2022/07/10 08:07:09;;;;;;;4.35;3.90;;;;;;;;;;5053565;28;20013;-67
2022/07/10 08:09:34;;;;;;;3.88;3.67;;;;;;;;;;5046114;28;20067;-65
2022/07/10 08:12:00;;;;;;;3.92;3.63;;;;;;;;;;5054067;28;20033;-66
2022/07/10 08:14:25;;;;;;;3.75;3.55;;;;;;;;;;5038070;28;20025;-66
2022/07/10 08:16:50;;;;;;;4.88;3.90;;;;;;;;;;5053838;28;20020;-65
2022/07/10 08:19:16;;;;;;;3.33;2.95;;;;;;;;;;5052726;28;20045;-65
2022/07/10 08:21:41;;;;;;;3.90;3.60;;;;;;;;;;5054513;28;20037;-65
2022/07/10 08:24:06;;;;;;;3.70;3.22;;;;;;;;;;5034404;28;20122;-65
2022/07/10 08:26:31;;;;;;;3.80;2.53;;;;;;;;;;5053636;28;20039;-65
2022/07/10 08:28:57;;;;;;;2.95;2.63;;;;;;;;;;5052296;28;20071;-65
2022/07/10 08:31:22;;;;;;;9.18;3.95;;;;;;;;;;5050940;28;20463;-67
2022/07/10 08:33:48;;;;;;;3.38;3.17;;;;;;;;;;5052503;28;20393;-66
2022/07/10 08:36:13;;;;;;;3.60;3.30;;;;;;;;;;5053230;28;20112;-65
2022/07/10 08:38:39;;;;;;;3.80;3.22;;;;;;;;;;5064398;28;20639;-65
2022/07/10 08:41:05;;;;;;;4.53;3.65;;;;;;;;;;5074714;28;20123;-65
2022/07/10 08:43:31;;;;;;;3.60;3.40;;;;;;;;;;5071568;28;20060;-66
2022/07/10 08:45:57;;;;;;;3.20;2.90;;;;;;;;;;5074558;28;20112;-65
2022/07/10 08:48:23;;;;;;;4.07;3.67;;;;;;;;;;5074325;28;20040;-65
2022/07/10 08:50:51;;;;;;;2.85;2.75;;;;;;;;;;5073042;28;20032;-65
2022/07/10 08:53:21;;;;;;;4.60;3.10;;;;;;;;;;5072358;28;20493;-64
2022/07/10 08:55:46;;;;;;;3.45;2.92;;;;;;;;;;5088169;28;20492;-67
2022/07/10 08:58:12;;;;;;;3.20;2.97;;;;;;;;;;5074225;28;20074;-65
2022/07/10 09:00:37;;;;;;;3.40;3.17;;;;;;;;;;5072735;28;20027;-64
2022/07/10 09:03:02;;;;;;;3.30;3.03;;;;;;;;;;5072052;28;20063;-64
2022/07/10 09:05:28;;;;;;;3.95;2.60;;;;;;;;;;5072946;28;20032;-64
2022/07/10 09:07:54;;;;;;;3.83;2.78;;;;;;;;;;5072054;28;20027;-66
2022/07/10 09:10:20;;;;;;;7.00;3.85;;;;;;;;;;5073283;28;20526;-65
2022/07/10 09:12:56;;;;;;;2.92;2.78;;;;;;;;;;5071324;28;20108;-64
2022/07/10 09:15:22;;;;;;;3.80;3.50;;;;;;;;;;5072333;28;20024;-66
2022/07/10 09:17:50;;;;;;;2.70;2.50;;;;;;;;;;5073009;28;20444;-66
2022/07/10 09:20:29;;;;;;;3.20;3.00;;;;;;;;;;5079767;28;20083;-66
2022/07/10 09:22:54;;;;;;;3.45;3.15;;;;;;;;;;5071319;28;20107;-65
2022/07/10 09:25:19;;;;;;;2.97;2.78;;;;;;;;;;5073519;28;20024;-65
2022/07/10 09:27:52;;;;;;;2.60;2.42;;;;;;;;;;5073163;28;20599;-65
2022/07/10 09:30:30;;;;;;;2.88;2.60;;;;;;;;;;5070221;28;20140;-66
2022/07/10 09:33:14;;;;;;;2.75;2.33;;;;;;;;;;5072348;28;20028;-65
2022/07/10 09:36:05;;;;;;;3.78;2.65;;;;;;;;;;5079877;28;20382;-65
2022/07/10 09:38:51;;;;;;;2.65;2.45;;;;;;;;;;5056144;28;20055;-65
2022/07/10 09:41:18;;;;;;;3.10;2.90;;;;;;;;;;5050170;28;20426;-65
2022/07/10 09:43:52;;;;;;;2.97;2.58;;;;;;;;;;5037717;28;20032;-65
2022/07/10 09:46:18;;;;;;;2.60;2.50;;;;;;;;;;5052391;28;20032;-64
2022/07/10 09:48:44;;;;;;;5.53;2.83;;;;;;;;;;5052184;28;20070;-65
2022/07/10 09:51:10;;;;;;;2.97;2.13;;;;;;;;;;5051393;28;20028;-66
2022/07/10 09:53:40;;;;;;;2.20;2.00;;;;;;;;;;5052275;28;20020;-65
2022/07/10 09:56:07;;;;;;;2.50;1.77;;;;;;;;;;5044582;28;20503;-65
2022/07/10 09:58:32;;;;;;;2.60;2.03;;;;;;;;;;5052952;28;20044;-65
2022/07/10 10:00:58;;;;;;;1.88;1.75;;;;;;;;;;5054573;28;20458;-66
2022/07/10 10:03:24;;;;;;;1.73;1.65;;;;;;;;;;5054468;28;20020;-66
2022/07/10 10:05:54;;;;;;;1.90;1.77;;;;;;;;;;5054085;28;20052;-65
2022/07/10 10:08:22;;;;;;;1.60;1.50;;;;;;;;;;5038511;28;20048;-66
2022/07/10 10:10:48;;;;;;;2.25;1.70;;;;;;;;;;5034597;28;20035;-65
2022/07/10 10:13:18;;;;;;;1.90;1.80;;;;;;;;;;5053039;28;20019;-65
2022/07/10 10:15:43;;;;;;;1.50;1.50;;;;;;;;;;5053510;28;20028;-66
2022/07/10 10:18:10;;;;;;;1.45;1.45;;;;;;;;;;5052087;28;20368;-66
2022/07/10 10:20:41;;;;;;;2.55;2.45;;;;;;;;;;5051907;28;20503;-66
2022/07/10 10:23:10;;;;;;;1.67;1.58;;;;;;;;;;5051476;28;20037;-69
2022/07/10 10:25:37;;;;;;;2.25;2.05;;;;;;;;;;5050937;28;20036;-66
2022/07/10 10:28:04;;;;;;;2.15;1.65;;;;;;;;;;5050518;28;20024;-65
2022/07/10 10:30:29;;;;;;;1.80;1.70;;;;;;;;;;5051917;28;20025;-66
2022/07/10 10:32:55;;;;;;;3.92;1.70;;;;;;;;;;5050910;28;20475;-66
2022/07/10 10:35:59;;;;;;;3.80;1.80;;;;;;;;;;5049377;28;20085;-65
2022/07/10 10:38:24;;;;;;;3.80;2.10;;;;;;;;;;4967878;28;20060;-67
2022/07/10 10:40:49;;;;;;;2.38;2.17;;;;;;;;;;5001329;28;20046;-66
2022/07/10 10:43:22;;;;;;;4.90;3.75;;;;;;;;;;4999976;28;20503;-66
2022/07/10 10:45:48;;;;;;;2.80;2.60;;;;;;;;;;5000132;28;20122;-66
2022/07/10 10:48:17;;;;;;;1.90;1.80;;;;;;;;;;5001186;28;20073;-66
2022/07/10 10:50:46;;;;;;;2.28;2.03;;;;;;;;;;5000335;28;20077;-66
2022/07/10 10:53:40;;;;;;;3.33;2.10;;;;;;;;;;5001580;28;20632;-66
2022/07/10 10:56:07;;;;;;;1.92;1.83;;;;;;;;;;4994980;28;20034;-66
2022/07/10 10:58:45;;;;;;;1.90;1.80;;;;;;;;;;5002513;28;20030;-67
2022/07/10 11:01:28;;;;;;;1.95;1.85;;;;;;;;;;5002811;28;20038;-66
2022/07/10 11:04:08;;;;;;;10.80;7.28;;;;;;;;;;4996128;28;20076;-66
2022/07/10 11:06:40;;;;;;;54.50;26.90;;;;;;;;;;5001891;28;20041;-66
2022/07/10 11:09:24;;;;;;;3.00;2.15;;;;;;;;;;5035489;28;20127;-67
2022/07/10 11:12:09;;;;;;;3.25;1.70;;;;;;;;;;5073510;28;20131;-67
2022/07/10 11:14:39;;;;;;;2.70;2.50;;;;;;;;;;5075767;28;20089;-65
2022/07/10 11:17:05;;;;;;;3.13;2.40;;;;;;;;;;5074868;28;20135;-66
2022/07/10 11:19:31;;;;;;;3.92;2.85;;;;;;;;;;5075361;28;20047;-65
2022/07/10 11:22:02;;;;;;;5.10;3.03;;;;;;;;;;5073752;28;20080;-65
2022/07/10 11:24:27;;;;;;;3.70;2.05;;;;;;;;;;5074476;28;20016;-65
2022/07/10 11:27:02;;;;;;;2.67;2.47;;;;;;;;;;5075387;28;20032;-65
2022/07/10 11:29:27;;;;;;;3.55;2.50;;;;;;;;;;5074533;28;20020;-66
2022/07/10 11:31:53;;;;;;;2.15;1.98;;;;;;;;;;5075843;28;20389;-66
2022/07/10 11:34:18;;;;;;;4.13;2.53;;;;;;;;;;5074762;28;20032;-66
2022/07/10 11:36:44;;;;;;;3.78;2.50;;;;;;;;;;5074430;28;20100;-66
2022/07/10 11:39:12;;;;;;;2.45;2.17;;;;;;;;;;5055278;28;20067;-65
2022/07/10 11:41:47;;;;;;;3.88;2.35;;;;;;;;;;5046011;28;20040;-66
2022/07/10 11:44:16;;;;;;;2.80;2.60;;;;;;;;;;5055502;28;20052;-67
2022/07/10 11:46:44;;;;;;;2.67;2.30;;;;;;;;;;5035475;28;20341;-66
2022/07/10 11:49:10;;;;;;;4.07;2.88;;;;;;;;;;5053257;28;20071;-65
2022/07/10 11:51:39;;;;;;;18.33;3.60;;;;;;;;;;5054672;28;20440;-65
2022/07/10 11:54:12;;;;;;;3.20;2.13;;;;;;;;;;5037583;28;20035;-65
2022/07/10 11:56:42;;;;;;;3.17;2.45;;;;;;;;;;5054092;28;20025;-66
2022/07/10 11:59:08;;;;;;;3.03;2.70;;;;;;;;;;5053235;28;20036;-66
2022/07/10 12:01:34;;;;;;;2.83;2.28;;;;;;;;;;5052013;28;20071;-65
2022/07/10 12:04:02;;;;;;;6.30;2.47;;;;;;;;;;5053239;28;20025;-66
2022/07/10 12:06:27;;;;;;;2.22;2.08;;;;;;;;;;5052633;28;20017;-65
2022/07/10 12:08:53;;;;;;;3.25;2.42;;;;;;;;;;5053930;28;20028;-66
2022/07/10 12:11:19;;;;;;;3.83;2.58;;;;;;;;;;5052475;28;20021;-66
2022/07/10 12:13:44;;;;;;;5.45;2.25;;;;;;;;;;5036092;28;20391;-66
2022/07/10 12:16:10;;;;;;;4.43;2.40;;;;;;;;;;5053127;28;20031;-65
2022/07/10 12:18:35;;;;;;;2.53;1.85;;;;;;;;;;5054636;28;20426;-66
2022/07/10 12:21:01;;;;;;;2.53;1.85;;;;;;;;;;5052457;28;20434;-66
2022/07/10 12:23:27;;;;;;;2.90;2.00;;;;;;;;;;5053129;28;20033;-67
2022/07/10 12:25:53;;;;;;;3.35;2.10;;;;;;;;;;5039615;28;20020;-66
2022/07/10 12:28:18;;;;;;;2.58;1.83;;;;;;;;;;5053660;28;20048;-67
2022/07/10 12:30:47;;;;;;;1.80;1.70;;;;;;;;;;5051272;28;20029;-64
2022/07/10 12:33:17;;;;;;;4.05;2.70;;;;;;;;;;5044587;28;20016;-65
2022/07/10 12:35:51;;;;;;;2.40;2.13;;;;;;;;;;5052916;28;20024;-66
2022/07/10 12:38:21;;;;;;;2.03;1.70;;;;;;;;;;5052663;28;20063;-65
2022/07/10 12:40:47;;;;;;;2.67;2.17;;;;;;;;;;5051665;28;20421;-65
2022/07/10 12:43:12;;;;;;;1.83;1.73;;;;;;;;;;5051697;28;20028;-67
2022/07/10 12:45:38;;;;;;;3.22;2.20;;;;;;;;;;5052288;28;20473;-65
2022/07/10 12:48:05;;;;;;;3.17;2.00;;;;;;;;;;5035225;28;20134;-65
2022/07/10 12:50:31;;;;;;;2.10;2.00;;;;;;;;;;5052177;28;20036;-65
2022/07/10 12:53:11;;;;;;;1.80;1.70;;;;;;;;;;5052771;28;20415;-65
2022/07/10 12:55:41;;;;;;;5.65;2.60;;;;;;;;;;5052273;28;20128;-65
2022/07/10 12:58:11;;;;;;;3.63;2.05;;;;;;;;;;5051280;28;20571;-65
2022/07/10 13:00:43;;;;;;;4.57;2.17;;;;;;;;;;5052483;28;20040;-64
2022/07/10 13:03:10;;;;;;;2.13;2.00;;;;;;;;;;5051191;28;20115;-65
2022/07/10 13:05:39;;;;;;;2.92;2.05;;;;;;;;;;5052681;28;20031;-65
2022/07/10 13:08:06;;;;;;;2.17;1.98;;;;;;;;;;5052907;28;20029;-65
2022/07/10 13:10:32;;;;;;;6.28;2.10;;;;;;;;;;5052420;28;20024;-65
2022/07/10 13:12:57;;;;;;;3.78;1.92;;;;;;;;;;5039478;28;20557;-65
2022/07/10 13:15:22;;;;;;;2.65;1.70;;;;;;;;;;5052404;28;20497;-65
2022/07/10 13:17:48;;;;;;;4.63;1.75;;;;;;;;;;5035958;28;20379;-65
2022/07/10 13:20:14;;;;;;;2.20;1.30;;;;;;;;;;5052000;28;20055;-65
2022/07/10 13:22:39;;;;;;;3.97;2.08;;;;;;;;;;5051474;28;20083;-66
2022/07/10 13:25:05;;;;;;;5.07;1.85;;;;;;;;;;5039798;28;20490;-65
2022/07/10 13:27:32;;;;;;;2.17;1.60;;;;;;;;;;5037316;28;20033;-65
2022/07/10 13:29:57;;;;;;;2.47;1.60;;;;;;;;;;5051863;28;20532;-65
2022/07/10 13:32:22;;;;;;;2.55;1.73;;;;;;;;;;5051949;28;20024;-65
2022/07/10 13:34:47;;;;;;;1.77;1.67;;;;;;;;;;5054065;28;20372;-64
2022/07/10 13:37:14;;;;;;;1.85;1.75;;;;;;;;;;5034139;28;20111;-64
2022/07/10 13:39:39;;;;;;;2.33;1.40;;;;;;;;;;5052544;28;20072;-64
2022/07/10 13:42:04;;;;;;;1.67;1.58;;;;;;;;;;5052415;28;20455;-65
2022/07/10 13:44:30;;;;;;;3.92;2.40;;;;;;;;;;5051506;28;20028;-64
2022/07/10 13:46:56;;;;;;;1.85;1.75;;;;;;;;;;5051922;28;20530;-65
2022/07/10 13:49:22;;;;;;;1.77;1.48;;;;;;;;;;5052164;28;20044;-65
2022/07/10 13:51:47;;;;;;;5.57;2.28;;;;;;;;;;5052352;28;20111;-65
2022/07/10 13:54:12;;;;;;;1.55;1.30;;;;;;;;;;5052152;28;20017;-65
2022/07/10 13:56:38;;;;;;;2.28;1.95;;;;;;;;;;5052361;28;20524;-65
2022/07/10 13:59:03;;;;;;;1.40;1.30;;;;;;;;;;5034667;28;20215;-64
2022/07/10 14:01:28;;;;;;;1.40;1.30;;;;;;;;;;5051172;28;20051;-65
2022/07/10 14:03:53;;;;;;;3.00;1.50;;;;;;;;;;5034645;28;20028;-65
2022/07/10 14:06:20;;;;;;;1.92;1.70;;;;;;;;;;5037370;28;20119;-65
2022/07/10 14:08:45;;;;;;;2.55;1.33;;;;;;;;;;5051740;28;20033;-65
2022/07/10 14:11:10;;;;;;;1.63;1.52;;;;;;;;;;5050622;28;20040;-67
2022/07/10 14:13:36;;;;;;;3.03;1.42;;;;;;;;;;5033555;28;20032;-64
2022/07/10 14:16:02;;;;;;;1.65;1.48;;;;;;;;;;5037826;28;20317;-65
2022/07/10 14:18:38;;;;;;;2.95;1.60;;;;;;;;;;5052651;28;20029;-65
2022/07/10 14:21:08;;;;;;;1.92;1.55;;;;;;;;;;5051596;28;20485;-66
2022/07/10 14:23:33;;;;;;;1.50;1.40;;;;;;;;;;5050923;28;20064;-67
2022/07/10 14:25:59;;;;;;;4.45;1.67;;;;;;;;;;5052047;28;20111;-66
2022/07/10 14:28:24;;;;;;;2.25;1.70;;;;;;;;;;5052765;28;20056;-66
2022/07/10 14:30:49;;;;;;;1.60;1.50;;;;;;;;;;5053899;28;20094;-65
2022/07/10 14:33:15;;;;;;;1.60;1.50;;;;;;;;;;5039590;28;20025;-64
2022/07/10 14:35:40;;;;;;;3.10;1.45;;;;;;;;;;5055651;28;20078;-65
2022/07/10 14:38:05;;;;;;;2.53;1.30;;;;;;;;;;5055546;28;20049;-64
2022/07/10 14:40:30;;;;;;;1.77;1.65;;;;;;;;;;5036917;28;20166;-65
2022/07/10 14:42:57;;;;;;;2.30;1.27;;;;;;;;;;5055652;28;20089;-63